createdAt,value
2019-02-25T00:00:20.246Z,927.71
2019-02-25T00:01:20.200Z,927.74
2019-02-25T00:02:20.157Z,927.72
2019-02-25T00:03:20.129Z,927.67
2019-02-25T00:04:20.070Z,927.85
2019-02-25T00:05:20.026Z,927.88
2019-02-25T00:06:19.982Z,927.91
2019-02-25T00:07:19.939Z,927.85
2019-02-25T00:08:19.889Z,927.75
2019-02-25T00:09:19.863Z,927.90
2019-02-25T00:10:19.799Z,927.98
2019-02-25T00:11:19.762Z,928.01
2019-02-25T00:12:19.700Z,927.91
2019-02-25T00:13:19.668Z,927.85
2019-02-25T00:14:19.624Z,927.95
2019-02-25T00:15:19.601Z,927.99
2019-02-25T00:16:19.551Z,927.95
2019-02-25T00:17:19.514Z,927.99
2019-02-25T00:18:19.470Z,927.94
2019-02-25T00:19:19.405Z,927.90
2019-02-25T00:20:19.350Z,927.92
2019-02-25T00:21:19.338Z,927.95
2019-02-25T00:22:19.284Z,927.96
2019-02-25T00:23:19.230Z,927.99
2019-02-25T00:24:19.204Z,927.91
2019-02-25T00:25:19.142Z,927.95
2019-02-25T00:26:19.120Z,928.00
2019-02-25T00:27:19.074Z,927.98
2019-02-25T00:28:19.010Z,928.02
2019-02-25T00:29:18.967Z,928.06
2019-02-25T00:30:18.922Z,928.03
2019-02-25T00:31:18.887Z,928.02
2019-02-25T00:32:18.843Z,928.02
2019-02-25T00:33:18.779Z,928.00
2019-02-25T00:34:18.734Z,928.02
2019-02-25T00:35:18.723Z,928.03
2019-02-25T00:36:18.667Z,928.06
2019-02-25T00:37:18.635Z,928.07
2019-02-25T00:38:18.583Z,928.01
2019-02-25T00:39:18.546Z,928.08
2019-02-25T00:40:18.502Z,928.03
2019-02-25T00:41:18.438Z,928.02
2019-02-25T00:42:18.406Z,927.97
2019-02-25T00:43:18.350Z,927.94
2019-02-25T00:44:18.326Z,927.98
2019-02-25T00:45:18.278Z,927.91
2019-02-25T00:46:18.239Z,927.94
2019-02-25T00:47:18.198Z,927.96
2019-02-25T00:48:18.129Z,927.95
2019-02-25T00:49:18.094Z,927.95
2019-02-25T00:50:18.050Z,928.01
2019-02-25T00:51:17.989Z,928.01
2019-02-25T00:52:17.973Z,928.07
2019-02-25T00:53:17.896Z,928.03
2019-02-25T00:54:17.884Z,928.16
2019-02-25T00:55:17.828Z,928.16
2019-02-25T00:56:17.763Z,928.14
2019-02-25T00:57:17.743Z,928.15
2019-02-25T00:58:17.707Z,928.14
2019-02-25T00:59:17.630Z,928.10
2019-02-25T01:00:17.586Z,928.15
2019-02-25T01:01:17.573Z,928.06
2019-02-25T01:02:17.520Z,928.00
2019-02-25T01:03:17.465Z,927.99
2019-02-25T01:04:17.424Z,927.98
2019-02-25T01:05:17.396Z,927.95
2019-02-25T01:06:17.331Z,928.02
2019-02-25T01:07:17.288Z,928.03
2019-02-25T01:08:17.243Z,928.04
2019-02-25T01:09:17.207Z,928.04
2019-02-25T01:10:17.154Z,927.99
2019-02-25T01:11:17.109Z,928.02
2019-02-25T01:12:17.074Z,928.01
2019-02-25T01:13:17.009Z,928.01
2019-02-25T01:14:16.969Z,928.00
2019-02-25T01:15:16.951Z,928.06
2019-02-25T01:16:16.888Z,928.07
2019-02-25T01:17:16.843Z,928.09
2019-02-25T01:18:16.799Z,928.08
2019-02-25T01:19:16.754Z,928.11
2019-02-25T01:20:16.730Z,928.13
2019-02-25T01:21:16.665Z,928.14
2019-02-25T01:22:16.630Z,928.16
2019-02-25T01:23:16.576Z,928.17
2019-02-25T01:24:16.553Z,928.19
2019-02-25T01:25:16.476Z,928.22
2019-02-25T01:26:16.431Z,928.20
2019-02-25T01:27:16.398Z,928.19
2019-02-25T01:28:16.365Z,928.16
2019-02-25T01:29:16.298Z,928.18
2019-02-25T01:30:16.285Z,928.17
2019-02-25T01:31:16.241Z,928.20
2019-02-25T01:32:16.164Z,928.20
2019-02-25T01:33:16.121Z,928.18
2019-02-25T01:34:16.108Z,928.20
2019-02-25T01:35:16.042Z,928.18
2019-02-25T01:36:16.007Z,928.20
2019-02-25T01:37:15.962Z,928.14
2019-02-25T01:38:15.918Z,928.15
2019-02-25T01:39:15.864Z,928.14
2019-02-25T01:40:15.808Z,928.17
2019-02-25T01:41:15.796Z,928.15
2019-02-25T01:42:15.740Z,928.12
2019-02-25T01:43:15.707Z,928.10
2019-02-25T01:44:15.662Z,928.08
2019-02-25T01:45:15.597Z,928.09
2019-02-25T01:46:15.561Z,928.12
2019-02-25T01:47:15.509Z,928.12
2019-02-25T01:48:15.472Z,928.07
2019-02-25T01:49:15.407Z,928.06
2019-02-25T01:50:15.394Z,928.05
2019-02-25T01:51:15.331Z,928.05
2019-02-25T01:52:15.273Z,928.05
2019-02-25T01:53:15.261Z,928.00
2019-02-25T01:54:15.205Z,927.97
2019-02-25T01:55:15.171Z,927.97
2019-02-25T01:56:15.127Z,927.96
2019-02-25T01:57:15.071Z,927.99
2019-02-25T01:58:15.038Z,927.95
2019-02-25T01:59:14.993Z,927.95
2019-02-25T02:00:14.954Z,927.92
2019-02-25T02:01:14.883Z,927.89
2019-02-25T02:02:14.828Z,927.87
2019-02-25T02:03:14.814Z,927.80
2019-02-25T02:04:14.751Z,927.75
2019-02-25T02:05:14.699Z,927.73
2019-02-25T02:06:14.650Z,927.75
2019-02-25T02:07:14.604Z,927.79
2019-02-25T02:08:14.571Z,927.79
2019-02-25T02:09:14.536Z,927.81
2019-02-25T02:10:14.504Z,927.87
2019-02-25T02:11:14.459Z,927.91
2019-02-25T02:12:14.382Z,927.95
2019-02-25T02:13:14.633Z,928.01
2019-02-25T02:14:14.313Z,928.04
2019-02-25T02:15:14.253Z,928.06
2019-02-25T02:16:14.236Z,928.01
2019-02-25T02:17:14.171Z,927.96
2019-02-25T02:18:14.126Z,927.92
2019-02-25T02:19:14.102Z,927.91
2019-02-25T02:20:14.059Z,927.84
2019-02-25T02:21:14.013Z,927.78
2019-02-25T02:22:13.954Z,927.74
2019-02-25T02:23:13.892Z,927.75
2019-02-25T02:24:13.847Z,927.72
2019-02-25T02:25:13.815Z,927.70
2019-02-25T02:26:13.779Z,927.67
2019-02-25T02:27:13.726Z,927.68
2019-02-25T02:28:13.702Z,927.63
2019-02-25T02:29:13.636Z,927.63
2019-02-25T02:30:13.595Z,927.68
2019-02-25T02:31:13.557Z,927.63
2019-02-25T02:32:13.491Z,927.57
2019-02-25T02:33:13.468Z,927.60
2019-02-25T02:34:13.434Z,927.58
2019-02-25T02:35:13.372Z,927.57
2019-02-25T02:36:13.346Z,927.58
2019-02-25T02:37:13.269Z,927.62
2019-02-25T02:38:13.276Z,927.66
2019-02-25T02:39:13.179Z,927.71
2019-02-25T02:40:13.140Z,927.68
2019-02-25T02:41:13.090Z,927.70
2019-02-25T02:42:13.059Z,927.70
2019-02-25T02:43:13.002Z,927.73
2019-02-25T02:44:12.980Z,927.74
2019-02-25T02:45:12.912Z,927.70
2019-02-25T02:46:12.869Z,927.67
2019-02-25T02:47:12.843Z,927.68
2019-02-25T02:48:12.811Z,927.65
2019-02-25T02:49:12.766Z,927.65
2019-02-25T02:50:12.703Z,927.59
2019-02-25T02:51:12.672Z,927.62
2019-02-25T02:52:12.640Z,927.59
2019-02-25T02:53:12.657Z,927.56
2019-02-25T02:54:12.523Z,927.54
2019-02-25T02:55:12.479Z,927.53
2019-02-25T02:56:12.444Z,927.56
2019-02-25T02:57:12.399Z,927.56
2019-02-25T02:58:12.334Z,927.52
2019-02-25T02:59:12.301Z,927.43
2019-02-25T03:00:12.278Z,927.48
2019-02-25T03:01:12.233Z,927.48
2019-02-25T03:02:12.167Z,927.45
2019-02-25T03:03:12.133Z,927.41
2019-02-25T03:04:12.067Z,927.40
2019-02-25T03:05:12.054Z,927.40
2019-02-25T03:06:11.999Z,927.40
2019-02-25T03:07:11.966Z,927.40
2019-02-25T03:08:11.911Z,927.38
2019-02-25T03:09:11.877Z,927.36
2019-02-25T03:10:11.833Z,927.35
2019-02-25T03:11:11.768Z,927.36
2019-02-25T03:12:11.712Z,927.35
2019-02-25T03:13:11.679Z,927.35
2019-02-25T03:14:11.623Z,927.37
2019-02-25T03:15:11.611Z,927.32
2019-02-25T03:16:11.570Z,927.31
2019-02-25T03:17:11.491Z,927.28
2019-02-25T03:18:11.473Z,927.32
2019-02-25T03:19:11.432Z,927.29
2019-02-25T03:20:11.374Z,927.30
2019-02-25T03:21:11.333Z,927.28
2019-02-25T03:22:11.280Z,927.30
2019-02-25T03:23:11.244Z,927.27
2019-02-25T03:24:11.199Z,927.33
2019-02-25T03:25:11.146Z,927.26
2019-02-25T03:26:11.122Z,927.24
2019-02-25T03:27:11.045Z,927.25
2019-02-25T03:28:11.021Z,927.30
2019-02-25T03:29:10.968Z,927.33
2019-02-25T03:30:10.929Z,927.26
2019-02-25T03:31:10.901Z,927.27
2019-02-25T03:32:10.850Z,927.28
2019-02-25T03:33:10.781Z,927.24
2019-02-25T03:34:10.735Z,927.22
2019-02-25T03:35:10.722Z,927.23
2019-02-25T03:36:10.659Z,927.22
2019-02-25T03:37:10.621Z,927.20
2019-02-25T03:38:10.589Z,927.19
2019-02-25T03:39:10.525Z,927.18
2019-02-25T03:40:10.487Z,927.18
2019-02-25T03:41:10.425Z,927.16
2019-02-25T03:42:10.409Z,927.12
2019-02-25T03:43:10.368Z,927.10
2019-02-25T03:44:10.308Z,927.07
2019-02-25T03:45:10.275Z,927.07
2019-02-25T03:46:10.219Z,927.09
2019-02-25T03:47:10.194Z,927.08
2019-02-25T03:48:10.144Z,927.11
2019-02-25T03:49:10.098Z,927.15
2019-02-25T03:50:10.042Z,927.11
2019-02-25T03:51:09.996Z,927.10
2019-02-25T03:52:09.932Z,927.13
2019-02-25T03:53:09.906Z,927.12
2019-02-25T03:54:09.853Z,927.12
2019-02-25T03:55:14.078Z,927.04
2019-02-25T03:56:09.763Z,927.04
2019-02-25T03:57:09.708Z,927.01
2019-02-25T03:58:09.673Z,926.94
2019-02-25T03:59:09.638Z,926.93
2019-02-25T04:00:09.593Z,926.88
2019-02-25T04:01:09.548Z,926.86
2019-02-25T04:02:09.494Z,926.82
2019-02-25T04:03:09.473Z,926.78
2019-02-25T04:04:09.405Z,926.77
2019-02-25T04:05:09.360Z,926.76
2019-02-25T04:06:09.305Z,926.72
2019-02-25T04:07:09.291Z,926.70
2019-02-25T04:08:09.241Z,926.70
2019-02-25T04:09:09.181Z,926.67
2019-02-25T04:10:09.158Z,926.65
2019-02-25T04:11:09.093Z,926.64
2019-02-25T04:12:09.050Z,926.67
2019-02-25T04:13:08.992Z,926.71
2019-02-25T04:14:08.962Z,926.71
2019-02-25T04:15:08.928Z,926.74
2019-02-25T04:16:08.878Z,926.72
2019-02-25T04:17:08.847Z,926.77
2019-02-25T04:18:08.825Z,926.76
2019-02-25T04:19:08.757Z,926.75
2019-02-25T04:20:08.693Z,926.75
2019-02-25T04:21:08.655Z,926.71
2019-02-25T04:22:08.616Z,926.65
2019-02-25T04:23:08.545Z,926.63
2019-02-25T04:24:08.524Z,926.61
2019-02-25T04:25:08.471Z,926.58
2019-02-25T04:26:08.431Z,926.55
2019-02-25T04:27:08.366Z,926.51
2019-02-25T04:28:08.321Z,926.49
2019-02-25T04:29:08.297Z,926.45
2019-02-25T04:30:08.244Z,926.42
2019-02-25T04:31:08.221Z,926.39
2019-02-25T04:32:08.175Z,926.31
2019-02-25T04:33:08.098Z,926.32
2019-02-25T04:34:08.067Z,926.24
2019-02-25T04:35:08.030Z,926.18
2019-02-25T04:36:07.997Z,926.20
2019-02-25T04:37:07.953Z,926.16
2019-02-25T04:38:07.908Z,926.17
2019-02-25T04:39:07.844Z,926.18
2019-02-25T04:40:07.822Z,926.22
2019-02-25T04:41:07.773Z,926.24
2019-02-25T04:42:07.701Z,926.29
2019-02-25T04:43:07.684Z,926.39
2019-02-25T04:44:07.618Z,926.46
2019-02-25T04:45:07.595Z,926.45
2019-02-25T04:46:07.550Z,926.47
2019-02-25T04:47:07.473Z,926.49
2019-02-25T04:48:07.453Z,926.54
2019-02-25T04:49:07.407Z,926.50
2019-02-25T04:50:07.360Z,926.53
2019-02-25T04:51:07.316Z,926.49
2019-02-25T04:52:07.283Z,926.49
2019-02-25T04:53:07.217Z,926.56
2019-02-25T04:54:07.184Z,926.62
2019-02-25T04:55:07.150Z,926.58
2019-02-25T04:56:07.083Z,926.59
2019-02-25T04:57:07.048Z,926.61
2019-02-25T04:58:07.014Z,926.59
2019-02-25T04:59:06.961Z,926.56
2019-02-25T05:00:06.925Z,926.57
2019-02-25T05:01:06.849Z,926.57
2019-02-25T05:02:06.837Z,926.54
2019-02-25T05:03:06.771Z,926.52
2019-02-25T05:04:06.715Z,926.51
2019-02-25T05:05:06.703Z,926.54
2019-02-25T05:06:06.627Z,926.51
2019-02-25T05:07:06.583Z,926.54
2019-02-25T05:08:06.548Z,926.54
2019-02-25T05:09:06.524Z,926.51
2019-02-25T05:10:06.450Z,926.51
2019-02-25T05:11:06.423Z,926.49
2019-02-25T05:12:06.362Z,926.47
2019-02-25T05:13:06.329Z,926.46
2019-02-25T05:14:06.269Z,926.45
2019-02-25T05:15:06.236Z,926.44
2019-02-25T05:16:06.201Z,926.44
2019-02-25T05:17:06.156Z,926.46
2019-02-25T05:18:06.123Z,926.45
2019-02-25T05:19:06.078Z,926.48
2019-02-25T05:20:06.002Z,926.51
2019-02-25T05:21:05.958Z,926.51
2019-02-25T05:22:05.954Z,926.52
2019-02-25T05:23:05.868Z,926.50
2019-02-25T05:24:05.857Z,926.53
2019-02-25T05:25:05.788Z,926.48
2019-02-25T05:26:05.748Z,926.48
2019-02-25T05:27:05.693Z,926.48
2019-02-25T05:28:05.647Z,926.53
2019-02-25T05:29:05.633Z,926.51
2019-02-25T05:30:05.560Z,926.54
2019-02-25T05:31:05.534Z,926.54
2019-02-25T05:32:05.499Z,926.52
2019-02-25T05:33:05.475Z,926.46
2019-02-25T05:34:05.378Z,926.45
2019-02-25T05:35:05.355Z,926.43
2019-02-25T05:36:05.311Z,926.45
2019-02-25T05:37:05.265Z,926.50
2019-02-25T05:38:05.234Z,926.52
2019-02-25T05:39:05.165Z,926.54
2019-02-25T05:40:05.110Z,926.57
2019-02-25T05:41:05.099Z,926.58
2019-02-25T05:42:05.052Z,926.61
2019-02-25T05:43:05.014Z,926.60
2019-02-25T05:44:04.951Z,926.56
2019-02-25T05:45:04.908Z,926.58
2019-02-25T05:46:04.863Z,926.63
2019-02-25T05:47:04.834Z,926.63
2019-02-25T05:48:04.767Z,926.62
2019-02-25T05:49:04.719Z,926.60
2019-02-25T05:50:04.694Z,926.58
2019-02-25T05:51:04.627Z,926.58
2019-02-25T05:52:04.585Z,926.54
2019-02-25T05:53:04.540Z,926.54
2019-02-25T05:54:04.498Z,926.56
2019-02-25T05:55:04.470Z,926.55
2019-02-25T05:56:04.406Z,926.54
2019-02-25T05:57:04.381Z,926.57
2019-02-25T05:58:04.308Z,926.59
2019-02-25T05:59:04.282Z,926.62
2019-02-25T06:00:04.225Z,926.62
2019-02-25T06:01:04.201Z,926.67
2019-02-25T06:02:05.522Z,926.67
2019-02-25T06:03:04.087Z,926.72
2019-02-25T06:04:04.067Z,926.70
2019-02-25T06:05:04.002Z,926.68
2019-02-25T06:06:03.966Z,926.70
2019-02-25T06:07:03.901Z,926.72
2019-02-25T06:08:03.861Z,926.72
2019-02-25T06:09:03.831Z,926.75
2019-02-25T06:10:03.806Z,926.74
2019-02-25T06:11:03.721Z,926.70
2019-02-25T06:12:03.677Z,926.72
2019-02-25T06:13:03.654Z,926.68
2019-02-25T06:14:03.588Z,926.69
2019-02-25T06:15:03.575Z,926.70
2019-02-25T06:16:03.518Z,926.70
2019-02-25T06:17:03.486Z,926.73
2019-02-25T06:18:03.441Z,926.74
2019-02-25T06:19:03.380Z,926.74
2019-02-25T06:20:03.319Z,926.66
2019-02-25T06:21:03.274Z,926.68
2019-02-25T06:22:03.242Z,926.66
2019-02-25T06:23:03.225Z,926.65
2019-02-25T06:24:03.151Z,926.62
2019-02-25T06:25:03.115Z,926.63
2019-02-25T06:26:03.084Z,926.64
2019-02-25T06:27:03.006Z,926.67
2019-02-25T06:28:02.981Z,926.62
2019-02-25T06:29:02.919Z,926.65
2019-02-25T06:30:02.883Z,926.59
2019-02-25T06:31:02.839Z,926.65
2019-02-25T06:32:02.781Z,926.66
2019-02-25T06:33:02.737Z,926.64
2019-02-25T06:34:02.705Z,926.63
2019-02-25T06:35:02.668Z,926.66
2019-02-25T06:36:02.623Z,926.64
2019-02-25T06:37:02.558Z,926.61
2019-02-25T06:38:02.527Z,926.57
2019-02-25T06:39:02.480Z,926.65
2019-02-25T06:40:02.424Z,926.59
2019-02-25T06:41:02.414Z,926.57
2019-02-25T06:42:02.366Z,926.57
2019-02-25T06:43:02.323Z,926.45
2019-02-25T06:44:02.276Z,926.49
2019-02-25T06:45:02.212Z,926.47
2019-02-25T06:46:02.167Z,926.43
2019-02-25T06:47:02.112Z,926.38
2019-02-25T06:48:02.077Z,926.41
2019-02-25T06:49:02.036Z,926.38
2019-02-25T06:50:02.010Z,926.39
2019-02-25T06:51:01.955Z,926.39
2019-02-25T06:52:01.907Z,926.34
2019-02-25T06:53:01.846Z,926.37
2019-02-25T06:54:01.799Z,926.43
2019-02-25T06:55:01.767Z,926.40
2019-02-25T06:56:01.787Z,926.37
2019-02-25T06:57:01.696Z,926.35
2019-02-25T06:58:01.618Z,926.39
2019-02-25T06:59:01.574Z,926.41
2019-02-25T07:00:01.531Z,926.44
2019-02-25T07:01:01.496Z,926.43
2019-02-25T07:02:01.472Z,926.43
2019-02-25T07:03:01.427Z,926.54
2019-02-25T07:04:01.382Z,926.59
2019-02-25T07:05:01.311Z,926.54
2019-02-25T07:06:01.282Z,926.54
2019-02-25T07:07:01.236Z,926.54
2019-02-25T07:08:01.171Z,926.55
2019-02-25T07:09:01.159Z,926.52
2019-02-25T07:10:01.114Z,926.54
2019-02-25T07:11:01.060Z,926.56
2019-02-25T07:12:01.017Z,926.52
2019-02-25T07:13:00.968Z,926.55
2019-02-25T07:14:00.934Z,926.53
2019-02-25T07:15:00.858Z,926.46
2019-02-25T07:16:00.825Z,926.47
2019-02-25T07:17:00.780Z,926.42
2019-02-25T07:18:00.735Z,926.49
2019-02-25T07:19:00.711Z,926.44
2019-02-25T07:20:00.655Z,926.40
2019-02-25T07:21:00.622Z,926.41
2019-02-25T07:22:00.558Z,926.38
2019-02-25T07:23:00.521Z,926.39
2019-02-25T07:24:00.488Z,926.33
2019-02-25T07:25:00.430Z,926.35
2019-02-25T07:26:00.387Z,926.39
2019-02-25T07:27:00.322Z,926.36
2019-02-25T07:28:00.288Z,926.40
2019-02-25T07:29:00.245Z,926.41
2019-02-25T07:30:00.228Z,926.45
2019-02-25T07:31:00.144Z,926.44
2019-02-25T07:32:00.130Z,926.43
2019-02-25T07:33:00.086Z,926.46
2019-02-25T07:34:00.023Z,926.44
2019-02-25T07:34:59.986Z,926.42
2019-02-25T07:35:59.940Z,926.39
2019-02-25T07:36:59.895Z,926.40
2019-02-25T07:37:59.833Z,926.40
2019-02-25T07:38:59.817Z,926.40
2019-02-25T07:39:59.761Z,926.40
2019-02-25T07:40:59.728Z,926.38
2019-02-25T07:41:59.674Z,926.40
2019-02-25T07:42:59.637Z,926.37
2019-02-25T07:43:59.582Z,926.31
2019-02-25T07:44:59.529Z,926.33
2019-02-25T07:45:59.472Z,926.34
2019-02-25T07:46:59.428Z,926.43
2019-02-25T07:47:59.395Z,926.41
2019-02-25T07:48:59.372Z,926.43
2019-02-25T07:49:59.314Z,926.47
2019-02-25T07:50:59.281Z,926.45
2019-02-25T07:51:59.236Z,926.50
2019-02-25T07:52:59.190Z,926.48
2019-02-25T07:53:59.135Z,926.49
2019-02-25T07:54:59.102Z,926.51
2019-02-25T07:56:02.300Z,926.49
2019-02-25T07:56:58.981Z,926.48
2019-02-25T07:57:58.947Z,926.46
2019-02-25T07:58:58.925Z,926.44
2019-02-25T07:59:58.880Z,926.41
2019-02-25T08:00:58.834Z,926.41
2019-02-25T08:01:58.790Z,926.39
2019-02-25T08:02:58.745Z,926.33
2019-02-25T08:03:58.667Z,926.35
2019-02-25T08:04:58.637Z,926.34
2019-02-25T08:05:58.590Z,926.33
2019-02-25T08:06:58.569Z,926.31
2019-02-25T08:07:58.488Z,926.30
2019-02-25T08:08:58.457Z,926.35
2019-02-25T08:09:58.401Z,926.37
2019-02-25T08:10:58.357Z,926.37
2019-02-25T08:11:58.332Z,926.39
2019-02-25T08:12:58.266Z,926.38
2019-02-25T08:13:58.220Z,926.45
2019-02-25T08:14:58.177Z,926.51
2019-02-25T08:15:58.142Z,926.54
2019-02-25T08:16:58.097Z,926.53
2019-02-25T08:17:58.058Z,926.54
2019-02-25T08:18:58.008Z,926.56
2019-02-25T08:19:57.984Z,926.49
2019-02-25T08:20:57.930Z,926.53
2019-02-25T08:21:57.898Z,926.55
2019-02-25T08:22:57.849Z,926.54
2019-02-25T08:23:57.784Z,926.52
2019-02-25T08:24:57.728Z,926.56
2019-02-25T08:25:57.715Z,926.53
2019-02-25T08:26:57.657Z,926.52
2019-02-25T08:27:57.594Z,926.53
2019-02-25T08:28:57.549Z,926.54
2019-02-25T08:29:57.505Z,926.53
2019-02-25T08:30:57.473Z,926.58
2019-02-25T08:31:57.434Z,926.53
2019-02-25T08:32:57.390Z,926.44
2019-02-25T08:33:57.345Z,926.41
2019-02-25T08:34:57.314Z,926.38
2019-02-25T08:35:57.237Z,926.36
2019-02-25T08:37:02.441Z,926.36
2019-02-25T08:37:57.157Z,926.39
2019-02-25T08:38:57.123Z,926.41
2019-02-25T08:39:57.091Z,926.41
2019-02-25T08:40:57.026Z,926.40
2019-02-25T08:41:56.979Z,926.43
2019-02-25T08:42:56.944Z,926.46
2019-02-25T08:43:56.898Z,926.48
2019-02-25T08:44:56.847Z,926.45
2019-02-25T08:45:56.821Z,926.47
2019-02-25T08:46:56.745Z,926.48
2019-02-25T08:47:56.699Z,926.46
2019-02-25T08:48:56.666Z,926.46
2019-02-25T08:49:56.609Z,926.51
2019-02-25T08:50:56.586Z,926.50
2019-02-25T08:51:56.552Z,926.49
2019-02-25T08:52:56.487Z,926.51
2019-02-25T08:53:56.444Z,926.53
2019-02-25T08:54:56.407Z,926.50
2019-02-25T08:55:58.302Z,926.52
2019-02-25T08:56:56.329Z,926.53
2019-02-25T08:57:56.264Z,926.53
2019-02-25T08:58:56.240Z,926.57
2019-02-25T08:59:56.196Z,926.59
2019-02-25T09:00:56.140Z,926.55
2019-02-25T09:01:56.085Z,926.56
2019-02-25T09:02:56.029Z,926.60
2019-02-25T09:03:56.006Z,926.61
2019-02-25T09:04:55.962Z,926.59
2019-02-25T09:05:55.907Z,926.61
2019-02-25T09:06:55.851Z,926.61
2019-02-25T09:07:55.810Z,926.59
2019-02-25T09:08:55.772Z,926.58
2019-02-25T09:09:55.750Z,926.60
2019-02-25T09:10:55.672Z,926.66
2019-02-25T09:11:55.659Z,926.63
2019-02-25T09:12:55.603Z,926.65
2019-02-25T09:13:55.558Z,926.68
2019-02-25T09:14:55.492Z,926.70
2019-02-25T09:15:55.449Z,926.69
2019-02-25T09:16:55.416Z,926.71
2019-02-25T09:17:55.379Z,926.73
2019-02-25T09:18:55.327Z,926.75
2019-02-25T09:19:55.293Z,926.83
2019-02-25T09:20:55.225Z,926.83
2019-02-25T09:21:55.191Z,926.84
2019-02-25T09:22:55.156Z,926.87
2019-02-25T09:23:55.112Z,926.83
2019-02-25T09:24:55.058Z,926.86
2019-02-25T09:25:55.034Z,926.88
2019-02-25T09:26:54.989Z,926.90
2019-02-25T09:27:54.933Z,926.91
2019-02-25T09:28:54.899Z,926.92
2019-02-25T09:29:54.855Z,926.98
2019-02-25T09:30:54.778Z,926.99
2019-02-25T09:31:54.769Z,926.95
2019-02-25T09:32:54.710Z,926.98
2019-02-25T09:33:54.646Z,926.97
2019-02-25T09:34:54.611Z,926.94
2019-02-25T09:35:54.587Z,926.97
2019-02-25T09:36:54.512Z,926.97
2019-02-25T09:37:54.501Z,927.01
2019-02-25T09:38:56.544Z,927.05
2019-02-25T09:39:54.409Z,927.10
2019-02-25T09:40:54.331Z,927.10
2019-02-25T09:41:54.287Z,927.13
2019-02-25T09:42:54.274Z,927.14
2019-02-25T09:43:54.219Z,927.15
2019-02-25T09:44:54.175Z,927.13
2019-02-25T09:45:54.127Z,927.15
2019-02-25T09:46:54.084Z,927.14
2019-02-25T09:47:54.038Z,927.12
2019-02-25T09:48:53.987Z,927.15
2019-02-25T09:49:53.965Z,927.18
2019-02-25T09:50:53.919Z,927.20
2019-02-25T09:51:53.873Z,927.19
2019-02-25T09:52:53.818Z,927.19
2019-02-25T09:53:53.784Z,927.15
2019-02-25T09:54:53.708Z,927.14
2019-02-25T09:55:53.662Z,927.11
2019-02-25T09:56:53.640Z,927.10
2019-02-25T09:57:53.592Z,927.10
2019-02-25T09:58:53.532Z,927.08
2019-02-25T09:59:53.505Z,927.06
2019-02-25T10:00:53.453Z,927.07
2019-02-25T10:01:53.409Z,927.05
2019-02-25T10:02:53.367Z,927.11
2019-02-25T10:03:53.341Z,927.09
2019-02-25T10:04:53.274Z,927.09
2019-02-25T10:05:53.221Z,927.13
2019-02-25T10:07:01.975Z,927.17
2019-02-25T10:07:53.132Z,927.21
2019-02-25T10:08:53.124Z,927.21
2019-02-25T10:09:53.058Z,927.18
2019-02-25T10:10:53.029Z,927.23
2019-02-25T10:11:52.968Z,927.24
2019-02-25T10:12:52.921Z,927.28
2019-02-25T10:13:52.898Z,927.25
2019-02-25T10:14:52.833Z,927.27
2019-02-25T10:15:52.816Z,927.34
2019-02-25T10:16:53.958Z,928.20
2019-02-25T10:17:52.702Z,928.64
2019-02-25T10:18:52.668Z,928.79
2019-02-25T10:19:52.603Z,928.86
2019-02-25T10:20:52.593Z,928.83
2019-02-25T10:21:52.531Z,928.90
2019-02-25T10:22:52.511Z,928.74
2019-02-25T10:23:52.446Z,928.10
2019-02-25T10:24:52.426Z,927.46
2019-02-25T10:25:52.386Z,927.34
2019-02-25T10:26:52.325Z,927.29
2019-02-25T10:27:52.306Z,927.32
2019-02-25T10:28:52.233Z,927.34
2019-02-25T10:29:52.199Z,927.36
2019-02-25T10:30:53.164Z,927.39
2019-02-25T10:31:52.144Z,927.41
2019-02-25T10:32:52.104Z,927.45
2019-02-25T10:33:52.050Z,927.47
2019-02-25T10:34:51.988Z,927.50
2019-02-25T10:35:51.979Z,927.51
2019-02-25T10:36:52.416Z,927.49
2019-02-25T10:37:51.866Z,927.53
2019-02-25T10:38:51.835Z,927.60
2019-02-25T10:39:51.780Z,927.60
2019-02-25T10:40:53.800Z,927.61
2019-02-25T10:41:53.271Z,927.63
2019-02-25T10:42:51.653Z,927.59
2019-02-25T10:43:51.622Z,927.62
2019-02-25T10:44:51.589Z,927.63
2019-02-25T10:45:51.551Z,927.63
2019-02-25T10:46:51.483Z,927.67
2019-02-25T10:47:54.391Z,927.63
2019-02-25T10:48:54.407Z,927.56
2019-02-25T10:49:51.376Z,927.62
2019-02-25T10:50:56.010Z,927.63
2019-02-25T10:51:51.271Z,927.62
2019-02-25T10:52:51.259Z,927.65
2019-02-25T10:53:52.029Z,927.76
2019-02-25T10:54:52.426Z,927.74
2019-02-25T10:55:52.943Z,927.74
2019-02-25T10:56:51.651Z,927.73
2019-02-25T10:57:52.682Z,927.77
2019-02-25T10:58:50.989Z,927.76
2019-02-25T10:59:50.941Z,927.74
2019-02-25T11:00:50.923Z,927.72
2019-02-25T11:01:50.839Z,927.71
2019-02-25T11:02:51.664Z,927.69
2019-02-25T11:03:52.491Z,927.66
2019-02-25T11:04:51.428Z,927.66
2019-02-25T11:05:51.757Z,927.67
2019-02-25T11:06:50.658Z,927.68
2019-02-25T11:07:50.593Z,927.68
2019-02-25T11:08:50.555Z,927.61
2019-02-25T11:09:50.514Z,927.60
2019-02-25T11:10:52.381Z,927.58
2019-02-25T11:11:51.008Z,927.50
2019-02-25T11:12:50.381Z,927.54
2019-02-25T11:13:50.344Z,927.51
2019-02-25T11:14:50.299Z,927.57
2019-02-25T11:15:50.255Z,927.50
2019-02-25T11:16:52.109Z,927.50
2019-02-25T11:17:51.681Z,927.53
2019-02-25T11:18:52.217Z,927.53
2019-02-25T11:19:50.097Z,927.52
2019-02-25T11:20:50.050Z,927.51
2019-02-25T11:21:49.975Z,927.53
2019-02-25T11:22:49.957Z,927.56
2019-02-25T11:23:51.699Z,927.66
2019-02-25T11:24:51.825Z,927.62
2019-02-25T11:25:51.348Z,927.64
2019-02-25T11:26:49.772Z,927.64
2019-02-25T11:27:49.719Z,927.62
2019-02-25T11:28:49.697Z,927.59
2019-02-25T11:29:49.631Z,927.60
2019-02-25T11:30:51.419Z,927.55
2019-02-25T11:31:51.438Z,927.64
2019-02-25T11:32:51.245Z,927.58
2019-02-25T11:33:49.468Z,927.60
2019-02-25T11:34:49.433Z,927.62
2019-02-25T11:35:49.388Z,927.65
2019-02-25T11:36:50.826Z,927.71
2019-02-25T11:37:50.088Z,927.66
2019-02-25T11:38:49.263Z,927.70
2019-02-25T11:39:49.227Z,927.65
2019-02-25T11:40:49.179Z,927.71
2019-02-25T11:41:49.128Z,927.69
2019-02-25T11:42:49.092Z,927.59
2019-02-25T11:43:50.970Z,927.64
2019-02-25T11:44:49.005Z,927.64
2019-02-25T11:45:48.945Z,927.64
2019-02-25T11:46:48.925Z,927.62
2019-02-25T11:47:48.852Z,927.65
2019-02-25T11:48:48.842Z,927.68
2019-02-25T11:49:50.789Z,927.68
2019-02-25T11:50:48.761Z,927.75
2019-02-25T11:51:48.711Z,927.72
2019-02-25T11:52:48.671Z,927.76
2019-02-25T11:53:48.626Z,927.76
2019-02-25T11:54:48.593Z,927.82
2019-02-25T11:55:48.507Z,927.85
2019-02-25T11:56:48.476Z,927.85
2019-02-25T11:57:48.450Z,927.89
2019-02-25T11:58:48.414Z,927.95
2019-02-25T11:59:48.357Z,927.94
2019-02-25T12:00:48.326Z,927.91
2019-02-25T12:01:48.278Z,927.92
2019-02-25T12:02:48.243Z,927.84
2019-02-25T12:03:48.186Z,927.80
2019-02-25T12:04:48.532Z,927.82
2019-02-25T12:05:48.102Z,927.85
2019-02-25T12:06:48.074Z,927.89
2019-02-25T12:07:48.031Z,927.90
2019-02-25T12:08:47.991Z,927.93
2019-02-25T12:09:47.945Z,927.92
2019-02-25T12:10:47.903Z,927.97
2019-02-25T12:11:47.862Z,927.94
2019-02-25T12:12:47.817Z,927.90
2019-02-25T12:13:47.757Z,927.91
2019-02-25T12:14:47.739Z,927.97
2019-02-25T12:15:47.690Z,927.93
2019-02-25T12:16:47.634Z,927.91
2019-02-25T12:17:47.610Z,927.89
2019-02-25T12:18:47.569Z,927.90
2019-02-25T12:19:47.514Z,927.86
2019-02-25T12:20:47.452Z,927.91
2019-02-25T12:21:47.448Z,927.91
2019-02-25T12:22:47.383Z,927.92
2019-02-25T12:23:47.358Z,927.92
2019-02-25T12:24:47.284Z,927.91
2019-02-25T12:25:47.258Z,927.91
2019-02-25T12:26:47.224Z,927.88
2019-02-25T12:27:47.192Z,927.87